createdAt,value
2023-05-20T00:03:12.223Z,11.08
2023-05-20T00:08:59.756Z,11.08
2023-05-20T00:14:24.722Z,11.06
2023-05-20T00:20:12.628Z,11.03
2023-05-20T00:25:49.263Z,11.03
2023-05-20T00:31:49.690Z,11.02
2023-05-20T00:37:19.940Z,11.02
2023-05-20T00:43:20.443Z,11.01
2023-05-20T00:49:11.025Z,10.97
2023-05-20T00:54:46.816Z,10.94
2023-05-20T01:00:39.002Z,10.92
2023-05-20T01:06:01.178Z,10.89
2023-05-20T01:11:46.507Z,10.86
2023-05-20T01:17:12.997Z,10.85
2023-05-20T01:23:20.071Z,10.86
2023-05-20T01:29:00.135Z,10.86
2023-05-20T01:34:56.085Z,10.87
2023-05-20T01:40:25.978Z,10.91
2023-05-20T01:46:23.104Z,10.93
2023-05-20T01:52:33.726Z,10.93
2023-05-20T01:58:31.918Z,10.96
2023-05-20T02:04:19.604Z,10.97
2023-05-20T02:10:05.405Z,10.98
2023-05-20T02:16:08.724Z,10.96
2023-05-20T02:21:50.968Z,10.99
2023-05-20T02:26:55.771Z,11.01
2023-05-20T02:32:11.735Z,10.99
2023-05-20T02:37:49.976Z,10.96
2023-05-20T02:42:55.761Z,10.94
2023-05-20T02:48:24.856Z,10.93
2023-05-20T02:53:44.090Z,10.95
2023-05-20T02:59:17.152Z,10.98
2023-05-20T03:04:44.743Z,10.98
2023-05-20T03:10:09.421Z,10.95
2023-05-20T03:15:36.947Z,10.96
2023-05-20T03:21:11.179Z,10.98
2023-05-20T03:26:43.672Z,10.97
2023-05-20T03:32:34.521Z,10.98
2023-05-20T03:38:01.874Z,11.01
2023-05-20T03:43:47.693Z,11.03
2023-05-20T03:49:40.497Z,11.03
2023-05-20T03:55:08.092Z,11.02
2023-05-20T04:00:25.955Z,10.98
2023-05-20T04:05:43.311Z,10.94
2023-05-20T04:11:14.188Z,10.94
2023-05-20T04:17:10.870Z,10.97
2023-05-20T04:22:55.246Z,10.98
2023-05-20T04:29:00.489Z,11.04
2023-05-20T04:34:54.422Z,11.10
2023-05-20T04:40:17.305Z,11.12
2023-05-20T04:46:04.831Z,11.18
2023-05-20T04:51:37.113Z,11.25
2023-05-20T04:57:08.423Z,11.33
2023-05-20T05:02:39.056Z,11.43
2023-05-20T05:07:57.047Z,11.53
2023-05-20T05:13:30.897Z,11.64
2023-05-20T05:19:11.142Z,11.80
2023-05-20T05:24:35.111Z,11.96
2023-05-20T05:29:56.851Z,12.13
2023-05-20T05:35:25.733Z,12.27
2023-05-20T05:40:45.774Z,12.42
2023-05-20T05:46:42.758Z,12.54
2023-05-20T05:51:59.751Z,12.69
2023-05-20T05:57:12.142Z,12.80
2023-05-20T06:02:36.220Z,12.90
2023-05-20T06:07:55.980Z,13.03
2023-05-20T06:13:19.046Z,13.18
2023-05-20T06:18:44.506Z,13.30
2023-05-20T06:24:24.463Z,13.44
2023-05-20T06:30:04.677Z,13.54
2023-05-20T06:35:53.682Z,13.65
2023-05-20T06:41:16.670Z,13.74
2023-05-20T06:46:30.412Z,13.82
2023-05-20T06:51:56.413Z,13.88
2023-05-20T06:57:09.963Z,13.93
2023-05-20T07:02:15.312Z,13.96
2023-05-20T07:07:28.578Z,14.02
2023-05-20T07:12:39.731Z,14.14
2023-05-20T07:17:52.439Z,14.29
2023-05-20T07:23:15.836Z,14.55
2023-05-20T07:28:44.165Z,14.84
2023-05-20T07:34:00.413Z,15.10
2023-05-20T07:39:13.136Z,15.35
2023-05-20T07:44:19.080Z,15.56
2023-05-20T07:49:33.228Z,15.75
2023-05-20T07:54:36.685Z,15.99
2023-05-20T07:59:48.838Z,16.24
2023-05-20T08:04:54.822Z,16.43
2023-05-20T08:09:57.917Z,16.59
2023-05-20T08:15:02.289Z,16.78
2023-05-20T08:20:14.873Z,16.95
2023-05-20T08:25:38.296Z,17.19
2023-05-20T08:30:41.638Z,17.39
2023-05-20T08:35:44.467Z,17.66
2023-05-20T08:40:57.444Z,18.00
2023-05-20T08:46:02.399Z,18.28
2023-05-20T08:51:08.417Z,18.63
2023-05-20T08:56:15.237Z,19.03
2023-05-20T09:01:25.378Z,19.25
2023-05-20T09:06:28.130Z,19.55
2023-05-20T09:11:30.168Z,19.89
2023-05-20T09:16:35.750Z,20.04
2023-05-20T09:21:44.814Z,20.34
2023-05-20T09:26:50.230Z,20.64
2023-05-20T09:31:53.415Z,20.58
2023-05-20T09:36:59.493Z,20.27
2023-05-20T09:42:14.823Z,20.21
2023-05-20T09:47:20.847Z,20.28
2023-05-20T09:52:24.621Z,20.30
2023-05-20T09:57:28.078Z,20.30
2023-05-20T10:02:36.784Z,20.26
2023-05-20T10:07:58.735Z,20.60
2023-05-20T10:13:35.256Z,20.91
2023-05-20T10:19:03.658Z,21.14
2023-05-20T10:24:11.093Z,21.26
2023-05-20T10:29:24.744Z,21.29
2023-05-20T10:34:29.550Z,21.18
2023-05-20T10:39:35.832Z,21.27
2023-05-20T10:44:55.035Z,21.28
2023-05-20T10:49:58.383Z,21.59
2023-05-20T10:55:05.050Z,21.93
2023-05-20T11:00:16.843Z,22.01
2023-05-20T11:05:22.016Z,22.13
2023-05-20T11:10:25.367Z,22.17
2023-05-20T11:15:28.010Z,22.14
2023-05-20T11:20:37.483Z,21.92
2023-05-20T11:25:43.202Z,21.96
2023-05-20T11:30:49.267Z,21.93
2023-05-20T11:36:26.863Z,21.83
2023-05-20T11:41:30.268Z,21.70
2023-05-20T11:46:32.234Z,21.62
2023-05-20T11:51:35.040Z,21.52
2023-05-20T11:56:42.795Z,21.56
2023-05-20T12:02:01.553Z,21.66
2023-05-20T12:07:07.007Z,21.79
2023-05-20T12:12:20.174Z,21.72
2023-05-20T12:17:31.629Z,21.64
2023-05-20T12:22:34.184Z,21.67
2023-05-20T12:27:42.799Z,21.72
2023-05-20T12:32:54.095Z,21.77
2023-05-20T12:38:04.674Z,21.75
2023-05-20T12:43:10.130Z,21.66
2023-05-20T12:48:16.844Z,21.66
2023-05-20T12:53:25.593Z,21.71
2023-05-20T12:58:38.637Z,21.77
2023-05-20T13:03:40.802Z,21.84
2023-05-20T13:08:45.408Z,22.00
2023-05-20T13:13:50.252Z,22.13
2023-05-20T13:18:52.765Z,22.25
2023-05-20T13:23:56.676Z,22.28
2023-05-20T13:28:58.918Z,22.32
2023-05-20T13:34:04.532Z,22.42
2023-05-20T13:39:16.842Z,22.52
2023-05-20T13:44:22.138Z,22.58
2023-05-20T13:49:26.914Z,22.69
2023-05-20T13:54:34.783Z,22.75
2023-05-20T13:59:36.953Z,22.75
2023-05-20T14:04:46.869Z,22.85
2023-05-20T14:09:59.257Z,22.99
2023-05-20T14:15:07.387Z,23.11
2023-05-20T14:20:13.023Z,23.15
2023-05-20T14:25:18.596Z,23.23
2023-05-20T14:30:32.221Z,23.28
2023-05-20T14:35:45.501Z,23.36
2023-05-20T14:41:06.001Z,23.41
2023-05-20T14:46:32.516Z,23.54
2023-05-20T14:51:38.035Z,23.69
2023-05-20T14:56:47.139Z,23.79
2023-05-20T15:02:06.627Z,23.87
2023-05-20T15:07:24.669Z,23.89
2023-05-20T15:12:37.186Z,23.90
2023-05-20T15:18:06.347Z,23.98
2023-05-20T15:23:20.320Z,24.01
2023-05-20T15:28:35.629Z,24.01
2023-05-20T15:33:43.305Z,24.03
2023-05-20T15:38:51.883Z,24.01
2023-05-20T15:44:05.647Z,24.03
2023-05-20T15:49:12.543Z,24.07
2023-05-20T15:54:15.538Z,24.11
2023-05-20T15:59:28.116Z,24.11
2023-05-20T16:04:43.740Z,24.16
2023-05-20T16:09:49.092Z,24.16
2023-05-20T16:14:54.215Z,24.08
2023-05-20T16:19:59.524Z,23.92
2023-05-20T16:25:10.948Z,23.70
2023-05-20T16:30:17.645Z,23.41
2023-05-20T16:35:20.031Z,23.12
2023-05-20T16:40:22.981Z,22.95
2023-05-20T16:45:34.649Z,22.84
2023-05-20T16:50:50.846Z,22.69
2023-05-20T16:56:06.651Z,22.51
2023-05-20T17:01:36.934Z,22.31
2023-05-20T17:06:44.966Z,22.12
2023-05-20T17:11:54.481Z,21.91
2023-05-20T17:17:02.534Z,21.62
2023-05-20T17:22:10.981Z,21.34
2023-05-20T17:27:17.188Z,21.08
2023-05-20T17:32:22.756Z,20.88
2023-05-20T17:37:30.348Z,20.68
2023-05-20T17:42:37.716Z,20.55
2023-05-20T17:47:43.241Z,20.43
2023-05-20T17:52:50.822Z,20.33
2023-05-20T17:58:20.896Z,20.21
2023-05-20T18:03:41.736Z,20.08
2023-05-20T18:09:01.681Z,19.96
2023-05-20T18:14:09.435Z,19.75
2023-05-20T18:19:18.832Z,19.55
2023-05-20T18:24:26.906Z,19.38
2023-05-20T18:29:32.254Z,19.20
2023-05-20T18:34:49.142Z,18.99
2023-05-20T18:39:58.708Z,18.80
2023-05-20T18:45:01.355Z,18.60
2023-05-20T18:50:10.727Z,18.45
2023-05-20T18:55:17.793Z,18.31
2023-05-20T19:00:25.814Z,18.18
2023-05-20T19:06:01.731Z,18.05
2023-05-20T19:11:11.680Z,17.95
2023-05-20T19:16:21.808Z,17.86
2023-05-20T19:21:31.276Z,17.77
2023-05-20T19:26:40.793Z,17.68
2023-05-20T19:31:43.816Z,17.57
2023-05-20T19:36:48.703Z,17.47
2023-05-20T19:41:59.120Z,17.37
2023-05-20T19:47:07.180Z,17.25
2023-05-20T19:52:11.561Z,17.14
2023-05-20T19:57:13.698Z,17.03
2023-05-20T20:02:16.411Z,16.89
2023-05-20T20:07:18.703Z,16.78
2023-05-20T20:12:24.974Z,16.68
2023-05-20T20:17:27.092Z,16.58
2023-05-20T20:22:30.428Z,16.47
2023-05-20T20:27:35.012Z,16.39
2023-05-20T20:32:38.006Z,16.27
2023-05-20T20:37:40.392Z,16.14
2023-05-20T20:42:45.186Z,16.04
2023-05-20T20:47:51.657Z,15.95
2023-05-20T20:52:54.086Z,15.85
2023-05-20T20:57:57.712Z,15.79
2023-05-20T21:02:59.657Z,15.72
2023-05-20T21:08:03.440Z,15.66
2023-05-20T21:13:12.007Z,15.57
2023-05-20T21:18:18.111Z,15.48
2023-05-20T21:23:23.509Z,15.41
2023-05-20T21:28:25.616Z,15.33
2023-05-20T21:33:27.948Z,15.22
2023-05-20T21:38:31.039Z,15.11
2023-05-20T21:43:35.928Z,15.01
2023-05-20T21:48:39.750Z,14.90
2023-05-20T21:53:41.810Z,14.82
2023-05-20T21:58:43.851Z,14.77
2023-05-20T22:03:48.793Z,14.72
2023-05-20T22:08:52.636Z,14.67
2023-05-20T22:14:02.328Z,14.61
2023-05-20T22:19:13.724Z,14.58
2023-05-20T22:24:32.685Z,14.57
2023-05-20T22:29:54.949Z,14.55
2023-05-20T22:35:23.790Z,14.53
2023-05-20T22:40:27.162Z,14.48
2023-05-20T22:45:38.301Z,14.42
2023-05-20T22:51:02.053Z,14.39
2023-05-20T22:56:16.220Z,14.41
2023-05-20T23:01:22.316Z,14.46
2023-05-20T23:06:38.151Z,14.54
2023-05-20T23:11:48.779Z,14.61
2023-05-20T23:17:05.010Z,14.65
2023-05-20T23:22:30.340Z,14.69
2023-05-20T23:27:37.716Z,14.71
2023-05-20T23:32:45.908Z,14.74
2023-05-20T23:37:58.536Z,14.78
2023-05-20T23:43:09.985Z,14.80
2023-05-20T23:48:37.396Z,14.77
2023-05-20T23:53:48.133Z,14.73
2023-05-20T23:59:10.374Z,14.69
